Time;durP1;ratioP1;P1;durP2;ratioP2;P2;SDS_P1;SDS_P2;PMS_P1;PMS_P2;Temp;Humidity;BMP_temperature;BMP_pressure;BME280_temperature;BME280_humidity;BME280_pressure;Samples;Min_cycle;Max_cycle;Signal;HPM_P1;HPM_P2
2023/08/10 00:01:41;;;;;;;20.00;18.70;;;;;;;;;;5096895;28;20480;-82
2023/08/10 00:04:08;;;;;;;19.70;18.40;;;;;;;;;;5096025;28;20470;-82
2023/08/10 00:06:35;;;;;;;20.40;19.20;;;;;;;;;;5096335;28;20481;-83
2023/08/10 00:09:03;;;;;;;20.27;18.87;;;;;;;;;;5096648;28;20440;-83
2023/08/10 00:11:31;;;;;;;21.47;19.40;;;;;;;;;;5096779;28;20436;-83
2023/08/10 00:13:58;;;;;;;20.27;19.07;;;;;;;;;;5096265;28;20775;-84
2023/08/10 00:16:25;;;;;;;21.87;20.20;;;;;;;;;;5096136;28;20472;-83
2023/08/10 00:18:52;;;;;;;20.00;18.80;;;;;;;;;;5096740;28;20457;-82
2023/08/10 00:21:19;;;;;;;20.63;19.43;;;;;;;;;;5096490;28;20586;-82
2023/08/10 00:23:47;;;;;;;20.57;19.37;;;;;;;;;;5096081;28;20448;-82
2023/08/10 00:26:14;;;;;;;20.20;19.10;;;;;;;;;;5095826;28;20816;-82
2023/08/10 00:28:42;;;;;;;20.87;19.47;;;;;;;;;;5096328;28;20445;-83
2023/08/10 00:31:09;;;;;;;19.80;18.60;;;;;;;;;;5096175;28;20918;-83
2023/08/10 00:33:37;;;;;;;20.17;18.90;;;;;;;;;;5095305;28;20415;-82
2023/08/10 00:36:06;;;;;;;20.40;19.10;;;;;;;;;;5096104;28;20549;-82
2023/08/10 00:38:33;;;;;;;21.10;19.80;;;;;;;;;;5096258;28;20434;-82
2023/08/10 00:41:00;;;;;;;20.30;19.10;;;;;;;;;;5095198;28;20493;-81
2023/08/10 00:43:27;;;;;;;19.60;18.50;;;;;;;;;;5095474;28;20445;-82
2023/08/10 00:45:56;;;;;;;20.20;18.90;;;;;;;;;;5095787;28;20468;-83
2023/08/10 00:48:24;;;;;;;21.10;19.60;;;;;;;;;;5095862;28;20440;-82
2023/08/10 00:50:51;;;;;;;21.57;20.17;;;;;;;;;;5096176;28;20643;-84
2023/08/10 00:53:18;;;;;;;20.03;18.87;;;;;;;;;;5094733;28;20462;-82
2023/08/10 00:55:51;;;;;;;19.63;18.53;;;;;;;;;;5095305;28;20482;-82
2023/08/10 00:58:18;;;;;;;19.97;18.77;;;;;;;;;;5095880;28;20435;-84
2023/08/10 01:00:45;;;;;;;20.43;19.17;;;;;;;;;;5095270;28;20441;-83
2023/08/10 01:03:13;;;;;;;19.67;18.67;;;;;;;;;;5095624;28;20430;-82
2023/08/10 01:05:45;;;;;;;19.40;18.20;;;;;;;;;;5095866;28;20465;-83
2023/08/10 01:08:13;;;;;;;19.43;18.33;;;;;;;;;;5096016;28;20411;-82
2023/08/10 01:10:45;;;;;;;19.20;17.93;;;;;;;;;;5095719;28;20428;-83
2023/08/10 01:13:18;;;;;;;20.60;19.40;;;;;;;;;;5095299;28;20396;-83
2023/08/10 01:15:48;;;;;;;20.33;19.03;;;;;;;;;;5094613;28;20477;-83
2023/08/10 01:18:17;;;;;;;20.10;18.70;;;;;;;;;;5095638;28;20441;-82
2023/08/10 01:20:44;;;;;;;21.20;19.90;;;;;;;;;;5094266;28;20449;-84
2023/08/10 01:23:14;;;;;;;20.80;19.40;;;;;;;;;;5094714;28;20495;-82
2023/08/10 01:25:44;;;;;;;20.30;19.00;;;;;;;;;;5095087;28;20476;-82
2023/08/10 01:28:12;;;;;;;19.93;18.83;;;;;;;;;;5094987;28;20530;-82
2023/08/10 01:30:39;;;;;;;19.70;18.50;;;;;;;;;;5095260;28;20518;-83
2023/08/10 01:33:08;;;;;;;20.50;19.20;;;;;;;;;;5094262;28;20460;-84
2023/08/10 01:35:35;;;;;;;19.93;18.80;;;;;;;;;;5094556;28;20505;-83
2023/08/10 01:38:02;;;;;;;19.60;18.40;;;;;;;;;;5095381;28;20426;-83
2023/08/10 01:40:30;;;;;;;20.10;18.80;;;;;;;;;;5094725;28;20424;-82
2023/08/10 01:42:58;;;;;;;20.00;18.73;;;;;;;;;;5095013;28;20462;-83
2023/08/10 01:45:25;;;;;;;20.87;19.63;;;;;;;;;;5095255;28;20447;-83
2023/08/10 01:47:54;;;;;;;20.03;18.67;;;;;;;;;;5094930;28;20428;-83
2023/08/10 01:50:24;;;;;;;20.60;18.63;;;;;;;;;;5094080;28;20468;-82
2023/08/10 01:52:52;;;;;;;20.60;19.30;;;;;;;;;;5093993;28;20473;-82
2023/08/10 01:55:20;;;;;;;20.47;19.30;;;;;;;;;;5094841;28;20460;-82
2023/08/10 01:57:48;;;;;;;22.23;20.37;;;;;;;;;;5094890;28;20449;-83
2023/08/10 02:00:17;;;;;;;21.23;19.67;;;;;;;;;;5094207;28;20415;-82
2023/08/10 02:02:44;;;;;;;20.63;18.87;;;;;;;;;;5093211;28;20467;-83
2023/08/10 02:05:11;;;;;;;20.57;19.33;;;;;;;;;;5093741;28;20465;-82
2023/08/10 02:07:38;;;;;;;20.90;19.60;;;;;;;;;;5094301;28;20447;-81
2023/08/10 02:10:06;;;;;;;20.70;19.40;;;;;;;;;;5094333;28;20463;-83
2023/08/10 02:12:33;;;;;;;21.53;19.97;;;;;;;;;;5093904;28;20848;-82
2023/08/10 02:15:00;;;;;;;20.27;19.07;;;;;;;;;;5092625;28;20948;-82
2023/08/10 02:17:35;;;;;;;20.30;19.30;;;;;;;;;;5093948;28;21057;-81
2023/08/10 02:20:04;;;;;;;21.10;19.90;;;;;;;;;;5094054;28;20498;-83
2023/08/10 02:22:32;;;;;;;20.63;19.43;;;;;;;;;;5093860;28;20542;-82
2023/08/10 02:24:59;;;;;;;21.30;20.00;;;;;;;;;;5094317;28;20842;-82
2023/08/10 02:27:26;;;;;;;21.03;19.83;;;;;;;;;;5097083;28;20445;-82
2023/08/10 02:29:53;;;;;;;21.00;19.73;;;;;;;;;;5093807;28;20445;-83
2023/08/10 02:32:20;;;;;;;21.10;19.53;;;;;;;;;;5093662;28;20440;-82
2023/08/10 02:34:48;;;;;;;21.70;20.27;;;;;;;;;;5092182;28;20431;-83
2023/08/10 02:37:15;;;;;;;19.97;18.80;;;;;;;;;;5093628;28;20799;-83
2023/08/10 02:39:42;;;;;;;20.80;19.37;;;;;;;;;;5093523;28;20441;-83
2023/08/10 02:42:10;;;;;;;19.07;18.07;;;;;;;;;;5093562;28;20485;-84
2023/08/10 02:44:37;;;;;;;20.10;18.90;;;;;;;;;;5093657;28;20844;-83
2023/08/10 02:47:04;;;;;;;20.10;19.00;;;;;;;;;;5092817;28;20521;-83
2023/08/10 02:49:31;;;;;;;20.00;18.93;;;;;;;;;;5093535;28;20730;-82
2023/08/10 02:52:00;;;;;;;21.57;20.23;;;;;;;;;;5092956;28;20936;-82
2023/08/10 02:54:27;;;;;;;20.23;19.03;;;;;;;;;;5093028;28;20454;-83
2023/08/10 02:56:54;;;;;;;19.93;18.73;;;;;;;;;;5093442;28;20969;-82
2023/08/10 02:59:21;;;;;;;20.60;19.40;;;;;;;;;;5093407;28;20452;-83
2023/08/10 03:01:48;;;;;;;20.10;18.80;;;;;;;;;;5093386;28;20910;-82
2023/08/10 03:04:15;;;;;;;21.37;20.07;;;;;;;;;;5092809;28;20440;-83
2023/08/10 03:06:42;;;;;;;21.13;19.87;;;;;;;;;;5093861;28;20442;-82
2023/08/10 03:09:11;;;;;;;19.80;18.80;;;;;;;;;;5093302;28;20440;-82
2023/08/10 03:11:38;;;;;;;20.23;19.13;;;;;;;;;;5093576;28;20426;-83
2023/08/10 03:14:05;;;;;;;21.00;19.57;;;;;;;;;;5094458;28;20451;-83
2023/08/10 03:16:32;;;;;;;20.00;18.90;;;;;;;;;;5097531;28;20480;-83
2023/08/10 03:18:59;;;;;;;20.10;19.00;;;;;;;;;;5101189;28;20810;-84
2023/08/10 03:21:26;;;;;;;21.20;19.90;;;;;;;;;;5098412;28;20973;-83
2023/08/10 03:23:53;;;;;;;19.53;18.43;;;;;;;;;;5098086;28;20957;-82
2023/08/10 03:26:22;;;;;;;19.17;18.00;;;;;;;;;;5098115;28;20840;-81
2023/08/10 03:28:49;;;;;;;19.80;18.60;;;;;;;;;;5098273;28;20464;-82
2023/08/10 03:31:16;;;;;;;19.93;18.83;;;;;;;;;;5099028;28;20418;-83
2023/08/10 03:33:44;;;;;;;19.97;18.83;;;;;;;;;;5098320;28;20444;-82
2023/08/10 03:36:11;;;;;;;20.07;18.87;;;;;;;;;;5098582;28;20464;-83
2023/08/10 03:38:38;;;;;;;19.80;18.70;;;;;;;;;;5098227;28;20441;-83
2023/08/10 03:41:05;;;;;;;21.13;19.80;;;;;;;;;;5098270;28;20444;-83
2023/08/10 03:43:34;;;;;;;21.17;19.87;;;;;;;;;;5097743;28;20466;-83
2023/08/10 03:46:05;;;;;;;21.00;19.60;;;;;;;;;;5100216;28;20990;-82
2023/08/10 03:48:32;;;;;;;20.80;19.60;;;;;;;;;;5097185;28;20893;-82
2023/08/10 03:51:00;;;;;;;21.17;19.83;;;;;;;;;;5097423;28;20418;-84
2023/08/10 03:53:27;;;;;;;22.03;20.33;;;;;;;;;;5097023;28;20441;-82
2023/08/10 03:55:54;;;;;;;21.90;20.40;;;;;;;;;;5096924;28;20452;-83
2023/08/10 03:58:21;;;;;;;21.47;20.17;;;;;;;;;;5097033;28;20460;-82
2023/08/10 04:00:50;;;;;;;21.40;20.13;;;;;;;;;;5097436;28;20508;-83
2023/08/10 04:03:17;;;;;;;21.07;19.50;;;;;;;;;;5097695;28;20480;-82
2023/08/10 04:05:44;;;;;;;20.53;19.33;;;;;;;;;;5097231;28;20438;-83
2023/08/10 04:08:11;;;;;;;20.70;19.30;;;;;;;;;;5097099;28;20448;-83
2023/08/10 04:10:39;;;;;;;21.97;20.67;;;;;;;;;;5097661;28;20526;-82
2023/08/10 04:13:06;;;;;;;21.83;20.53;;;;;;;;;;5096015;28;20419;-78
2023/08/10 04:15:33;;;;;;;22.67;21.13;;;;;;;;;;5095849;28;20846;-79
2023/08/10 04:18:02;;;;;;;22.80;20.83;;;;;;;;;;5096420;28;20407;-79
2023/08/10 04:20:29;;;;;;;21.50;20.10;;;;;;;;;;5095856;28;20444;-79
2023/08/10 04:22:57;;;;;;;22.97;20.90;;;;;;;;;;5095735;28;20541;-79
2023/08/10 04:25:24;;;;;;;22.13;20.77;;;;;;;;;;5096095;28;20560;-80
2023/08/10 04:27:51;;;;;;;22.83;21.03;;;;;;;;;;5095150;28;20491;-79
2023/08/10 04:30:19;;;;;;;22.40;20.80;;;;;;;;;;5096274;28;20827;-79
2023/08/10 04:32:46;;;;;;;21.83;20.40;;;;;;;;;;5095629;28;20453;-79
2023/08/10 04:35:14;;;;;;;21.63;20.23;;;;;;;;;;5095477;28;20476;-79
2023/08/10 04:37:41;;;;;;;21.50;20.03;;;;;;;;;;5097297;28;20456;-79
2023/08/10 04:40:09;;;;;;;21.87;20.53;;;;;;;;;;5096200;28;21136;-78
2023/08/10 04:42:39;;;;;;;21.90;20.17;;;;;;;;;;5095917;28;20480;-82
2023/08/10 04:45:09;;;;;;;21.70;20.50;;;;;;;;;;5096621;28;20866;-79
2023/08/10 04:47:36;;;;;;;22.00;20.73;;;;;;;;;;5096268;28;21235;-80
2023/08/10 04:50:03;;;;;;;22.60;21.03;;;;;;;;;;5096127;28;20444;-79
2023/08/10 04:52:32;;;;;;;23.10;21.67;;;;;;;;;;5097416;28;20472;-79
2023/08/10 04:54:59;;;;;;;22.00;20.70;;;;;;;;;;5096403;28;20933;-79
2023/08/10 04:57:26;;;;;;;23.47;21.83;;;;;;;;;;5096214;28;20425;-79
2023/08/10 04:59:53;;;;;;;22.17;20.87;;;;;;;;;;5099192;28;20485;-80
2023/08/10 05:02:20;;;;;;;22.90;21.37;;;;;;;;;;5080623;28;20514;-79
2023/08/10 05:04:47;;;;;;;23.87;21.90;;;;;;;;;;5075366;28;20445;-80
2023/08/10 05:07:14;;;;;;;23.70;22.10;;;;;;;;;;5084113;28;21241;-81
2023/08/10 05:09:43;;;;;;;23.23;21.60;;;;;;;;;;5097476;28;20491;-80
2023/08/10 05:12:10;;;;;;;23.67;21.87;;;;;;;;;;5096621;28;20415;-79
2023/08/10 05:14:37;;;;;;;24.20;22.37;;;;;;;;;;5099966;28;20445;-79
2023/08/10 05:17:05;;;;;;;24.90;22.67;;;;;;;;;;5097528;28;20434;-81
2023/08/10 05:19:32;;;;;;;23.80;22.30;;;;;;;;;;5097516;28;20546;-81
2023/08/10 05:21:59;;;;;;;24.33;22.50;;;;;;;;;;5095175;28;20787;-80
2023/08/10 05:24:26;;;;;;;24.10;22.70;;;;;;;;;;5094923;28;20496;-79
2023/08/10 05:26:54;;;;;;;22.73;21.27;;;;;;;;;;5095464;28;20488;-81
2023/08/10 05:29:21;;;;;;;24.20;22.50;;;;;;;;;;5096431;28;20449;-79
2023/08/10 05:31:48;;;;;;;24.10;22.37;;;;;;;;;;5095663;28;20759;-79
2023/08/10 05:34:16;;;;;;;24.07;22.60;;;;;;;;;;5094850;28;20441;-81
2023/08/10 05:36:43;;;;;;;25.90;23.80;;;;;;;;;;5093504;28;20455;-79
2023/08/10 05:39:10;;;;;;;27.37;25.23;;;;;;;;;;5094779;28;20420;-81
2023/08/10 05:41:37;;;;;;;28.87;26.60;;;;;;;;;;5095261;28;21068;-79
2023/08/10 05:44:06;;;;;;;25.67;23.77;;;;;;;;;;5094543;28;20459;-80
2023/08/10 05:46:33;;;;;;;26.13;24.53;;;;;;;;;;5095099;28;20431;-79
2023/08/10 05:49:02;;;;;;;27.77;25.40;;;;;;;;;;5092939;28;20453;-81
2023/08/10 05:51:29;;;;;;;28.43;25.83;;;;;;;;;;5093850;28;20920;-80
2023/08/10 05:53:56;;;;;;;27.07;25.27;;;;;;;;;;5092518;28;20419;-80
2023/08/10 05:56:24;;;;;;;27.73;25.90;;;;;;;;;;5093627;28;20464;-79
2023/08/10 05:58:51;;;;;;;28.07;25.70;;;;;;;;;;5094494;28;20856;-79
2023/08/10 06:01:21;;;;;;;27.60;25.73;;;;;;;;;;5092894;28;20460;-81
2023/08/10 06:03:48;;;;;;;27.60;25.40;;;;;;;;;;5072461;28;20991;-80
2023/08/10 06:06:16;;;;;;;27.87;25.80;;;;;;;;;;5073526;28;20997;-79
2023/08/10 06:08:44;;;;;;;27.47;25.53;;;;;;;;;;5076940;28;20511;-80
2023/08/10 06:11:11;;;;;;;26.00;24.20;;;;;;;;;;5073943;28;20412;-80
2023/08/10 06:13:41;;;;;;;27.77;25.17;;;;;;;;;;5073507;28;20537;-80
2023/08/10 06:16:08;;;;;;;26.60;24.63;;;;;;;;;;5073507;28;20481;-80
2023/08/10 06:18:37;;;;;;;26.20;23.87;;;;;;;;;;5073915;28;20438;-80
2023/08/10 06:21:04;;;;;;;25.83;24.00;;;;;;;;;;5073792;28;20448;-79
2023/08/10 06:23:31;;;;;;;26.97;24.33;;;;;;;;;;5073465;28;20572;-79
2023/08/10 06:26:00;;;;;;;26.70;24.80;;;;;;;;;;5073522;28;20468;-79
2023/08/10 06:28:28;;;;;;;26.03;23.97;;;;;;;;;;5073463;28;20885;-78
2023/08/10 06:30:55;;;;;;;27.23;25.13;;;;;;;;;;5072426;28;20430;-79
2023/08/10 06:33:22;;;;;;;25.30;23.50;;;;;;;;;;5073535;28;20401;-80
2023/08/10 06:35:52;;;;;;;24.87;23.20;;;;;;;;;;5073336;28;20466;-80
2023/08/10 06:38:19;;;;;;;27.17;25.00;;;;;;;;;;5073907;28;20469;-79
2023/08/10 06:40:46;;;;;;;27.13;25.33;;;;;;;;;;5073870;28;20481;-81
2023/08/10 06:43:13;;;;;;;25.30;23.50;;;;;;;;;;5078216;28;20501;-80
2023/08/10 06:45:40;;;;;;;26.40;24.07;;;;;;;;;;5093481;28;20824;-79
2023/08/10 06:48:07;;;;;;;25.30;23.40;;;;;;;;;;5093938;28;20419;-80
2023/08/10 06:50:34;;;;;;;24.93;22.73;;;;;;;;;;5093397;28;20477;-80
2023/08/10 06:53:03;;;;;;;23.53;21.83;;;;;;;;;;5093146;28;20445;-81
2023/08/10 06:55:30;;;;;;;26.03;23.30;;;;;;;;;;5092019;28;20538;-83
2023/08/10 06:57:57;;;;;;;23.30;21.80;;;;;;;;;;5094030;28;20441;-82
2023/08/10 07:00:24;;;;;;;24.60;22.70;;;;;;;;;;5093929;28;20806;-82
2023/08/10 07:02:53;;;;;;;23.87;22.27;;;;;;;;;;5093538;28;20449;-80
2023/08/10 07:05:21;;;;;;;23.43;21.70;;;;;;;;;;5087560;28;20496;-81
2023/08/10 07:07:49;;;;;;;24.50;22.60;;;;;;;;;;5093422;28;20459;-81
2023/08/10 07:10:17;;;;;;;23.57;21.90;;;;;;;;;;5093543;28;21010;-80
2023/08/10 07:12:45;;;;;;;22.97;21.37;;;;;;;;;;5092409;28;20452;-82
2023/08/10 07:15:12;;;;;;;23.87;22.17;;;;;;;;;;5093324;28;20472;-81
2023/08/10 07:17:39;;;;;;;24.10;22.23;;;;;;;;;;5092744;28;20441;-81
2023/08/10 07:20:08;;;;;;;24.00;22.27;;;;;;;;;;5092305;28;20459;-80
2023/08/10 07:22:36;;;;;;;23.20;21.30;;;;;;;;;;5094110;28;20441;-80
2023/08/10 07:25:05;;;;;;;22.70;21.20;;;;;;;;;;5092195;28;20499;-83
2023/08/10 07:27:34;;;;;;;23.47;21.83;;;;;;;;;;5092494;28;20439;-85
2023/08/10 07:30:03;;;;;;;27.43;22.03;;;;;;;;;;5093198;28;20791;-82
2023/08/10 07:32:30;;;;;;;23.23;21.73;;;;;;;;;;5092858;28;20578;-80
2023/08/10 07:34:58;;;;;;;23.83;22.07;;;;;;;;;;5094287;28;20476;-82
2023/08/10 07:37:25;;;;;;;22.23;20.70;;;;;;;;;;5093550;28;20461;-83
2023/08/10 07:39:52;;;;;;;21.50;19.80;;;;;;;;;;5094415;28;20437;-81
2023/08/10 07:42:19;;;;;;;22.27;20.40;;;;;;;;;;5094298;28;20449;-82
2023/08/10 07:44:47;;;;;;;20.37;18.87;;;;;;;;;;5096041;28;20476;-81
2023/08/10 07:47:14;;;;;;;21.50;20.10;;;;;;;;;;5095082;28;20472;-83
2023/08/10 07:49:43;;;;;;;21.57;19.80;;;;;;;;;;5092187;28;20511;-81
2023/08/10 07:52:10;;;;;;;21.70;20.30;;;;;;;;;;5094030;28;20915;-81
2023/08/10 07:54:37;;;;;;;20.73;19.20;;;;;;;;;;5085983;28;21093;-77
2023/08/10 07:57:04;;;;;;;20.57;19.27;;;;;;;;;;5091618;28;20445;-78
2023/08/10 07:59:31;;;;;;;21.97;20.37;;;;;;;;;;5091477;28;20445;-77
2023/08/10 08:02:00;;;;;;;21.10;19.40;;;;;;;;;;5091909;28;20468;-77
2023/08/10 08:04:27;;;;;;;21.30;19.90;;;;;;;;;;5095367;28;20497;-78
2023/08/10 08:06:54;;;;;;;21.43;19.87;;;;;;;;;;5095502;28;20464;-77
2023/08/10 08:09:22;;;;;;;21.63;20.13;;;;;;;;;;5095787;28;20448;-77
2023/08/10 08:11:49;;;;;;;20.93;19.63;;;;;;;;;;5096112;28;20445;-78
2023/08/10 08:14:17;;;;;;;21.53;20.20;;;;;;;;;;5091599;28;20905;-77
2023/08/10 08:16:44;;;;;;;21.80;20.27;;;;;;;;;;5093326;28;20457;-77
2023/08/10 08:19:13;;;;;;;20.80;19.40;;;;;;;;;;5098405;28;20400;-76
2023/08/10 08:21:40;;;;;;;20.87;19.47;;;;;;;;;;5093299;28;20441;-78
2023/08/10 08:24:07;;;;;;;19.73;18.63;;;;;;;;;;5092094;28;20536;-78
2023/08/10 08:26:36;;;;;;;21.43;19.70;;;;;;;;;;5086711;28;20902;-77
2023/08/10 08:29:03;;;;;;;19.67;18.57;;;;;;;;;;5076477;28;20460;-77
2023/08/10 08:31:30;;;;;;;19.93;18.50;;;;;;;;;;5075403;28;20490;-76
2023/08/10 08:33:57;;;;;;;20.87;19.27;;;;;;;;;;5074219;28;20919;-77
2023/08/10 08:36:26;;;;;;;21.00;19.60;;;;;;;;;;5074211;28;20496;-77
2023/08/10 08:38:53;;;;;;;20.03;18.50;;;;;;;;;;5074043;28;20800;-76
2023/08/10 08:41:21;;;;;;;20.13;18.97;;;;;;;;;;5074599;28;20807;-77
2023/08/10 08:43:49;;;;;;;20.53;19.23;;;;;;;;;;5074133;28;20478;-81
2023/08/10 08:46:18;;;;;;;19.57;18.40;;;;;;;;;;5074462;28;20963;-77
2023/08/10 08:48:45;;;;;;;19.57;18.20;;;;;;;;;;5073510;28;20476;-76
2023/08/10 08:51:12;;;;;;;20.37;18.80;;;;;;;;;;5075178;28;20446;-80
2023/08/10 08:53:40;;;;;;;19.17;17.97;;;;;;;;;;5074474;28;20829;-80
2023/08/10 08:56:08;;;;;;;19.90;18.60;;;;;;;;;;5074826;28;20470;-80
2023/08/10 08:58:35;;;;;;;21.10;19.80;;;;;;;;;;5075202;28;20465;-79
2023/08/10 09:01:03;;;;;;;20.60;19.20;;;;;;;;;;5074759;28;20473;-81
2023/08/10 09:03:30;;;;;;;20.63;19.23;;;;;;;;;;5074693;28;20460;-79
2023/08/10 09:05:57;;;;;;;22.93;21.37;;;;;;;;;;5074680;28;20458;-80
2023/08/10 09:08:24;;;;;;;22.23;20.57;;;;;;;;;;5075196;28;20457;-79
2023/08/10 09:10:53;;;;;;;20.87;19.67;;;;;;;;;;5074625;28;20461;-79
2023/08/10 09:13:22;;;;;;;22.23;20.93;;;;;;;;;;5073857;28;20476;-79
2023/08/10 09:16:04;;;;;;;23.07;21.60;;;;;;;;;;5074348;28;20519;-79
2023/08/10 09:18:32;;;;;;;22.50;21.10;;;;;;;;;;5075836;28;20437;-79
2023/08/10 09:21:07;;;;;;;22.73;21.13;;;;;;;;;;5074726;28;20473;-80
2023/08/10 09:23:36;;;;;;;22.23;20.40;;;;;;;;;;5074203;28;20461;-81
2023/08/10 09:26:08;;;;;;;21.53;20.03;;;;;;;;;;5075062;28;20519;-80
2023/08/10 09:28:37;;;;;;;23.17;21.40;;;;;;;;;;5075025;28;20467;-79
2023/08/10 09:31:04;;;;;;;22.70;21.30;;;;;;;;;;5074439;28;20564;-79
2023/08/10 09:33:33;;;;;;;23.30;21.80;;;;;;;;;;5074274;28;20780;-79
2023/08/10 09:36:00;;;;;;;21.93;20.43;;;;;;;;;;5074608;28;20458;-79
2023/08/10 09:38:27;;;;;;;21.83;20.53;;;;;;;;;;5074052;28;20445;-80
2023/08/10 09:41:09;;;;;;;21.30;20.00;;;;;;;;;;5073658;28;20442;-80
2023/08/10 09:43:37;;;;;;;21.23;19.93;;;;;;;;;;5073845;28;20437;-79
2023/08/10 09:46:05;;;;;;;22.57;21.17;;;;;;;;;;5073868;28;20443;-80
2023/08/10 09:48:35;;;;;;;22.37;20.97;;;;;;;;;;5076396;28;20440;-81
2023/08/10 09:51:03;;;;;;;22.30;20.50;;;;;;;;;;5091104;28;20479;-80
2023/08/10 09:53:30;;;;;;;23.07;21.23;;;;;;;;;;5073575;28;20470;-80
2023/08/10 09:55:57;;;;;;;21.63;20.30;;;;;;;;;;5074194;28;20473;-80
2023/08/10 09:58:26;;;;;;;22.67;20.83;;;;;;;;;;5074937;28;20446;-79
2023/08/10 10:00:53;;;;;;;22.57;21.00;;;;;;;;;;5074205;28;20437;-79
2023/08/10 10:03:20;;;;;;;22.73;20.90;;;;;;;;;;5073052;28;20469;-80
2023/08/10 10:05:50;;;;;;;21.70;20.30;;;;;;;;;;5073327;28;20487;-78
2023/08/10 10:08:17;;;;;;;23.17;21.30;;;;;;;;;;5073979;28;20438;-80
2023/08/10 10:10:45;;;;;;;22.27;20.77;;;;;;;;;;5074027;28;20431;-80
2023/08/10 10:13:13;;;;;;;22.63;20.87;;;;;;;;;;5073267;28;20503;-79
2023/08/10 10:15:43;;;;;;;23.97;22.17;;;;;;;;;;5072797;28;20960;-80
2023/08/10 10:18:10;;;;;;;22.07;20.67;;;;;;;;;;5074173;28;20779;-79
2023/08/10 10:20:38;;;;;;;22.63;20.90;;;;;;;;;;5073304;28;20429;-80
2023/08/10 10:23:06;;;;;;;21.80;20.30;;;;;;;;;;5072810;28;20453;-80
2023/08/10 10:25:33;;;;;;;22.33;21.03;;;;;;;;;;5072585;28;20551;-79
2023/08/10 10:28:00;;;;;;;21.90;20.60;;;;;;;;;;5073310;28;20461;-78
2023/08/10 10:30:27;;;;;;;22.60;21.10;;;;;;;;;;5073461;28;20457;-82
2023/08/10 10:32:55;;;;;;;22.40;21.10;;;;;;;;;;5072755;28;20442;-80
2023/08/10 10:35:24;;;;;;;22.90;21.20;;;;;;;;;;5072291;28;20482;-79
2023/08/10 10:37:58;;;;;;;23.27;21.67;;;;;;;;;;5073280;28;20438;-79
2023/08/10 10:40:25;;;;;;;21.43;20.13;;;;;;;;;;5073436;28;21173;-80
2023/08/10 10:43:08;;;;;;;22.73;21.30;;;;;;;;;;5072458;28;20449;-79
2023/08/10 10:45:36;;;;;;;22.57;21.27;;;;;;;;;;5073055;28;20836;-78
2023/08/10 10:48:06;;;;;;;23.20;21.60;;;;;;;;;;5079825;28;20461;-81
2023/08/10 10:50:33;;;;;;;22.93;21.33;;;;;;;;;;5073647;28;20935;-80
2023/08/10 10:53:01;;;;;;;22.67;21.07;;;;;;;;;;5075252;28;20457;-80
2023/08/10 10:55:29;;;;;;;22.77;20.97;;;;;;;;;;5074777;28;20457;-81
2023/08/10 10:57:56;;;;;;;22.90;21.20;;;;;;;;;;5074898;28;20442;-80
2023/08/10 11:00:25;;;;;;;22.80;21.40;;;;;;;;;;5074273;28;20430;-80
2023/08/10 11:02:52;;;;;;;22.73;21.33;;;;;;;;;;5096077;28;20483;-81
2023/08/10 11:05:21;;;;;;;22.70;21.20;;;;;;;;;;5095381;28;20481;-81
2023/08/10 11:07:48;;;;;;;23.20;21.60;;;;;;;;;;5095010;28;20473;-80
2023/08/10 11:10:16;;;;;;;22.50;21.00;;;;;;;;;;5094426;28;20881;-81
2023/08/10 11:12:44;;;;;;;22.20;20.90;;;;;;;;;;5095648;28;20457;-88
2023/08/10 11:15:12;;;;;;;22.23;20.83;;;;;;;;;;5095573;28;20465;-80
2023/08/10 11:17:41;;;;;;;22.37;20.97;;;;;;;;;;5094579;28;20452;-80
2023/08/10 11:20:11;;;;;;;21.30;20.10;;;;;;;;;;5094930;28;20445;-81
2023/08/10 11:22:40;;;;;;;23.83;22.00;;;;;;;;;;5095974;28;20440;-80
2023/08/10 11:25:13;;;;;;;21.20;19.90;;;;;;;;;;5093546;28;20495;-81
2023/08/10 11:27:41;;;;;;;22.23;20.83;;;;;;;;;;5094041;28;20491;-81
2023/08/10 11:30:09;;;;;;;21.70;20.40;;;;;;;;;;5094335;28;20441;-78
2023/08/10 11:32:39;;;;;;;21.73;20.40;;;;;;;;;;5091171;28;20464;-80
2023/08/10 11:35:07;;;;;;;22.00;20.70;;;;;;;;;;5088112;28;20491;-79
2023/08/10 11:37:36;;;;;;;22.57;21.10;;;;;;;;;;5097264;28;20449;-82
2023/08/10 11:40:11;;;;;;;22.80;21.40;;;;;;;;;;5096807;28;20445;-82
2023/08/10 11:42:38;;;;;;;22.20;20.80;;;;;;;;;;5096357;28;20448;-83
2023/08/10 11:45:08;;;;;;;23.33;21.93;;;;;;;;;;5095939;28;20500;-81
2023/08/10 11:47:40;;;;;;;22.50;20.90;;;;;;;;;;5097780;28;20440;-82
2023/08/10 11:50:09;;;;;;;21.10;19.90;;;;;;;;;;5098388;28;20457;-82
2023/08/10 11:52:36;;;;;;;23.77;21.90;;;;;;;;;;5097594;28;20499;-82
2023/08/10 11:55:12;;;;;;;21.90;20.60;;;;;;;;;;5097331;28;20492;-83
2023/08/10 11:57:39;;;;;;;22.67;21.30;;;;;;;;;;5097842;28;20441;-82
2023/08/10 12:00:17;;;;;;;21.90;20.43;;;;;;;;;;5098144;28;20452;-81
2023/08/10 12:02:56;;;;;;;22.43;21.03;;;;;;;;;;5098381;28;20445;-82
2023/08/10 12:05:33;;;;;;;23.33;21.43;;;;;;;;;;5100104;28;20488;-81
2023/08/10 12:08:00;;;;;;;22.23;20.83;;;;;;;;;;5097752;28;20453;-79
2023/08/10 12:10:33;;;;;;;21.83;20.53;;;;;;;;;;5098208;28;20441;-79
2023/08/10 12:13:02;;;;;;;23.17;21.60;;;;;;;;;;5098131;28;20441;-79
2023/08/10 12:15:31;;;;;;;22.77;21.03;;;;;;;;;;5094613;28;20544;-79
2023/08/10 12:17:58;;;;;;;21.50;20.10;;;;;;;;;;5097637;28;20458;-78
2023/08/10 12:20:25;;;;;;;22.40;21.00;;;;;;;;;;5100704;28;20437;-79
2023/08/10 12:23:14;;;;;;;21.40;20.20;;;;;;;;;;5106120;27;20549;-79
2023/08/10 12:25:44;;;;;;;24.33;22.30;;;;;;;;;;5102258;28;20484;-80
2023/08/10 12:28:11;;;;;;;23.47;21.90;;;;;;;;;;5096278;28;20472;-82
2023/08/10 12:30:39;;;;;;;22.43;20.93;;;;;;;;;;5096760;28;20441;-79
2023/08/10 12:33:08;;;;;;;23.90;21.93;;;;;;;;;;5095976;28;20485;-80
2023/08/10 12:35:35;;;;;;;22.30;20.80;;;;;;;;;;5096896;28;20544;-80
2023/08/10 12:38:03;;;;;;;24.07;22.37;;;;;;;;;;5095246;28;20455;-79
2023/08/10 12:40:30;;;;;;;22.93;21.40;;;;;;;;;;5095266;28;20449;-80
2023/08/10 12:42:59;;;;;;;23.57;21.93;;;;;;;;;;5097417;28;20419;-79
2023/08/10 12:45:26;;;;;;;22.37;20.90;;;;;;;;;;5097494;28;20549;-79
2023/08/10 12:47:54;;;;;;;22.10;20.70;;;;;;;;;;5095709;28;20415;-81
2023/08/10 12:50:22;;;;;;;22.60;21.10;;;;;;;;;;5096249;28;20898;-80
2023/08/10 12:52:49;;;;;;;22.67;21.17;;;;;;;;;;5101146;28;20427;-79
2023/08/10 12:55:17;;;;;;;22.50;20.90;;;;;;;;;;5099265;28;21005;-80
2023/08/10 12:57:44;;;;;;;22.40;20.97;;;;;;;;;;5103525;28;20420;-79
2023/08/10 13:00:16;;;;;;;22.10;20.60;;;;;;;;;;5105514;28;20548;-81
2023/08/10 13:02:44;;;;;;;22.30;20.90;;;;;;;;;;5096896;28;20445;-81
2023/08/10 13:05:11;;;;;;;22.30;21.00;;;;;;;;;;5097483;28;20574;-80
2023/08/10 13:07:39;;;;;;;21.67;20.27;;;;;;;;;;5108404;28;20437;-80
2023/08/10 13:10:07;;;;;;;21.70;20.40;;;;;;;;;;5104971;28;20414;-81
2023/08/10 13:12:34;;;;;;;22.83;21.33;;;;;;;;;;5104251;28;20455;-80
2023/08/10 13:15:02;;;;;;;22.07;20.57;;;;;;;;;;5104567;28;20475;-80
2023/08/10 13:17:31;;;;;;;22.40;20.90;;;;;;;;;;5105440;28;20424;-80
2023/08/10 13:19:59;;;;;;;21.97;20.27;;;;;;;;;;5106588;28;20437;-80
2023/08/10 13:22:27;;;;;;;21.80;20.43;;;;;;;;;;5104753;28;20465;-80
2023/08/10 13:24:54;;;;;;;22.40;20.80;;;;;;;;;;5105135;28;20563;-79
2023/08/10 13:27:22;;;;;;;21.50;20.20;;;;;;;;;;5104118;28;20445;-81
2023/08/10 13:29:49;;;;;;;22.50;21.20;;;;;;;;;;5103043;28;20471;-79
2023/08/10 13:32:16;;;;;;;22.37;20.97;;;;;;;;;;5101793;28;20475;-79
2023/08/10 13:34:45;;;;;;;22.53;21.23;;;;;;;;;;5100047;28;20449;-80
2023/08/10 13:37:12;;;;;;;22.80;21.37;;;;;;;;;;5083996;28;20476;-79
2023/08/10 13:39:39;;;;;;;22.07;20.60;;;;;;;;;;5096111;28;20468;-79
2023/08/10 13:42:06;;;;;;;22.70;21.00;;;;;;;;;;5098432;28;20458;-79
2023/08/10 13:44:33;;;;;;;23.80;22.10;;;;;;;;;;5095570;28;20456;-79
2023/08/10 13:47:01;;;;;;;23.07;21.67;;;;;;;;;;5095645;28;21137;-79
2023/08/10 13:49:28;;;;;;;22.97;21.53;;;;;;;;;;5096133;28;20480;-79
2023/08/10 13:51:57;;;;;;;23.20;21.70;;;;;;;;;;5096162;28;20445;-79
2023/08/10 13:54:24;;;;;;;23.30;21.70;;;;;;;;;;5095722;28;20452;-80
2023/08/10 13:57:11;;;;;;;23.00;21.60;;;;;;;;;;5095433;28;20681;-79
2023/08/10 13:59:38;;;;;;;22.40;20.90;;;;;;;;;;5096666;28;20459;-80
2023/08/10 14:02:08;;;;;;;22.40;21.00;;;;;;;;;;5096073;28;20506;-79
2023/08/10 14:04:35;;;;;;;22.93;21.40;;;;;;;;;;5096246;28;20434;-80
2023/08/10 14:07:04;;;;;;;22.00;20.70;;;;;;;;;;5096442;28;20491;-79
2023/08/10 14:09:31;;;;;;;23.30;22.00;;;;;;;;;;5096583;28;20437;-80
2023/08/10 14:11:58;;;;;;;23.20;21.80;;;;;;;;;;5094710;28;20948;-80
2023/08/10 14:14:26;;;;;;;22.87;21.50;;;;;;;;;;5094378;28;20421;-80
2023/08/10 14:16:55;;;;;;;22.33;21.03;;;;;;;;;;5094650;28;20494;-80
2023/08/10 14:19:22;;;;;;;23.40;21.90;;;;;;;;;;5095825;28;20432;-81
2023/08/10 14:21:49;;;;;;;22.90;21.60;;;;;;;;;;5094713;28;20449;-84